2D7 weather

Beach City Airport
Beach City, Ohio, United States

Public forecast

Using degrees Fahrenheit for public forecast. Weather courtesy of forecast.io.

METAR (pilot weather report)

Closest report is Harry Clever Field, 12.2 nm (22.7 km) SSE. Retrieved 2019/05/21 07:53 UTC (1 hour ago):

KPHD 210753Z AUTO 03008KT 10SM OVC035 10/04 A3010 RMK AO2 SLP191 T01000044

TAF (pilot weather forecast)

Closest forecast is Akron Canton Regional Airport, 17.0 nm (31.5 km) NNE. Retrieved 2019/05/21 06:33 UTC (2 hours ago):

TAF KCAK 210529Z 2106/2206 36011KT P6SM OVC035 TEMPO 2106/2108 5SM -RA BR OVC018 FM210900 VRB02KT P6SM OVC250 FM212100 03007KT P6SM BKN250 FM220000 05006KT P6SM BKN060 FM220300 07007KT P6SM SCT090